Time;durP1;ratioP1;P1;durP2;ratioP2;P2;SDS_P1;SDS_P2;PMS_P1;PMS_P2;Temp;Humidity;BMP_temperature;BMP_pressure;BME280_temperature;BME280_humidity;BME280_pressure;Samples;Min_cycle;Max_cycle;Signal;HPM_P1;HPM_P2
2023/03/24 00:00:40;;;;;;;11.95;5.28;;;13.10;99.90;;;;;;5032194;28;20046;-69
2023/03/24 00:03:06;;;;;;;10.05;4.97;;;12.80;99.90;;;;;;5032042;28;20041;-69
2023/03/24 00:05:32;;;;;;;14.82;6.88;;;12.50;99.90;;;;;;5032462;28;20041;-68
2023/03/24 00:08:01;;;;;;;10.15;5.18;;;12.90;99.90;;;;;;5032820;28;20409;-69
2023/03/24 00:10:33;;;;;;;11.38;5.57;;;12.80;99.90;;;;;;5016159;28;20045;-68
2023/03/24 00:12:59;;;;;;;12.00;5.10;;;13.10;99.90;;;;;;5016308;28;20096;-69
2023/03/24 00:15:25;;;;;;;11.38;6.18;;;12.50;99.90;;;;;;5032257;28;20045;-69
2023/03/24 00:17:51;;;;;;;12.20;5.75;;;12.80;99.90;;;;;;5032435;28;20099;-69
2023/03/24 00:20:19;;;;;;;13.07;5.68;;;13.00;99.90;;;;;;5032383;28;20045;-68
2023/03/24 00:22:47;;;;;;;12.15;5.68;;;12.50;99.90;;;;;;5032174;28;20053;-68
2023/03/24 00:25:14;;;;;;;15.45;5.93;;;12.80;99.90;;;;;;5015169;28;20512;-68
2023/03/24 00:27:40;;;;;;;14.10;5.70;;;12.80;99.90;;;;;;5032973;28;20046;-68
2023/03/24 00:30:08;;;;;;;12.23;5.60;;;12.80;99.90;;;;;;5015333;28;20037;-67
2023/03/24 00:32:37;;;;;;;13.65;5.38;;;12.90;99.90;;;;;;5031326;28;20037;-68
2023/03/24 00:35:08;;;;;;;9.05;5.03;;;12.60;99.90;;;;;;5015095;28;20033;-69
2023/03/24 00:37:40;;;;;;;10.88;5.85;;;12.20;99.90;;;;;;5031061;28;20091;-69
2023/03/24 00:40:11;;;;;;;12.05;4.97;;;12.90;99.90;;;;;;5031928;28;20440;-68
2023/03/24 00:42:37;;;;;;;10.50;4.95;;;12.40;99.90;;;;;;5014822;28;20146;-68
2023/03/24 00:45:05;;;;;;;9.15;4.88;;;12.50;99.90;;;;;;5014717;28;20044;-68
2023/03/24 00:47:36;;;;;;;10.73;5.80;;;12.70;99.90;;;;;;5031355;28;20045;-69
2023/03/24 00:50:05;;;;;;;8.10;4.53;;;12.70;99.90;;;;;;5031288;28;20041;-68
2023/03/24 00:52:32;;;;;;;14.20;5.05;;;12.60;99.90;;;;;;5014602;28;20501;-69
2023/03/24 00:55:00;;;;;;;11.45;5.28;;;12.60;99.90;;;;;;5031300;28;20390;-69
2023/03/24 00:57:28;;;;;;;11.30;4.57;;;12.70;99.90;;;;;;5031221;28;20041;-68
2023/03/24 00:59:55;;;;;;;8.43;4.90;;;12.40;99.90;;;;;;5032917;28;20041;-68
2023/03/24 01:02:26;;;;;;;8.50;4.38;;;13.00;99.90;;;;;;5030976;28;20033;-68
2023/03/24 01:04:57;;;;;;;7.53;4.35;;;12.30;99.90;;;;;;5014295;28;20033;-68
2023/03/24 01:07:25;;;;;;;9.32;5.05;;;12.90;99.90;;;;;;5031000;28;20052;-69
2023/03/24 01:09:56;;;;;;;7.72;4.78;;;12.80;99.90;;;;;;5025773;28;20037;-69
2023/03/24 01:12:31;;;;;;;9.73;4.00;;;12.90;99.90;;;;;;5050553;28;20462;-69
2023/03/24 01:14:58;;;;;;;11.32;4.57;;;12.50;99.90;;;;;;5050579;28;20041;-68
2023/03/24 01:17:25;;;;;;;10.85;5.78;;;12.90;99.90;;;;;;5034432;28;20126;-69
2023/03/24 01:19:52;;;;;;;8.38;4.65;;;12.90;99.90;;;;;;5050640;28;20032;-68
2023/03/24 01:22:19;;;;;;;7.47;4.90;;;12.80;99.90;;;;;;5051918;28;20386;-68
2023/03/24 01:24:48;;;;;;;12.52;5.03;;;12.60;99.90;;;;;;5050272;28;20047;-67
2023/03/24 01:27:14;;;;;;;8.13;4.50;;;12.80;99.90;;;;;;5033974;28;20090;-68
2023/03/24 01:29:40;;;;;;;8.60;4.88;;;13.10;99.90;;;;;;5051779;28;20511;-68
2023/03/24 01:32:06;;;;;;;8.70;4.90;;;12.70;99.90;;;;;;5050474;28;20048;-68
2023/03/24 01:34:32;;;;;;;9.68;4.35;;;12.70;99.90;;;;;;5050165;28;20040;-69
2023/03/24 01:36:59;;;;;;;10.55;4.95;;;12.80;99.90;;;;;;5034112;28;20098;-68
2023/03/24 01:39:25;;;;;;;8.85;5.03;;;12.60;99.90;;;;;;5050363;28;20037;-68
2023/03/24 01:41:50;;;;;;;7.22;5.18;;;12.50;99.90;;;;;;5033715;28;20052;-68
2023/03/24 01:44:36;;;;;;;10.77;4.75;;;12.90;99.90;;;;;;5051304;28;20558;-68
2023/03/24 01:47:06;;;;;;;12.80;4.70;;;12.70;99.90;;;;;;5050578;28;20051;-68
2023/03/24 01:49:36;;;;;;;10.50;5.05;;;12.50;99.90;;;;;;5050333;28;20041;-68
2023/03/24 01:52:06;;;;;;;10.18;4.80;;;12.50;99.90;;;;;;5050321;28;20049;-68
2023/03/24 01:54:50;;;;;;;10.63;5.13;;;12.70;99.90;;;;;;5051334;28;20048;-69
2023/03/24 01:57:19;;;;;;;9.27;4.47;;;12.90;99.90;;;;;;5050378;28;20044;-69
2023/03/24 01:59:50;;;;;;;8.95;5.10;;;12.90;99.90;;;;;;5051280;28;20514;-68
2023/03/24 02:02:16;;;;;;;7.43;4.65;;;12.90;99.90;;;;;;5050033;28;20439;-67
2023/03/24 02:04:52;;;;;;;10.02;4.68;;;12.70;99.90;;;;;;5050200;28;20098;-68
2023/03/24 02:07:30;;;;;;;8.13;4.82;;;12.70;99.90;;;;;;5050498;28;20408;-67
2023/03/24 02:09:56;;;;;;;7.13;4.65;;;12.70;99.90;;;;;;5050147;28;20045;-68
2023/03/24 02:12:22;;;;;;;8.10;4.82;;;12.80;99.90;;;;;;5050049;28;20063;-67
2023/03/24 02:14:48;;;;;;;7.75;4.80;;;12.80;99.90;;;;;;5049641;28;20131;-67
2023/03/24 02:17:36;;;;;;;11.45;5.15;;;13.30;99.90;;;;;;5033690;28;20041;-67
2023/03/24 02:20:37;;;;;;;11.82;5.82;;;12.80;99.90;;;;;;5050071;28;20072;-67
2023/03/24 02:23:41;;;;;;;7.38;5.13;;;12.70;99.90;;;;;;5049750;28;20504;-68
2023/03/24 02:26:25;;;;;;;10.85;5.70;;;12.60;99.90;;;;;;5051185;28;20128;-67
2023/03/24 02:28:55;;;;;;;7.85;5.00;;;12.70;99.90;;;;;;5050011;28;20041;-68
2023/03/24 02:32:08;;;;;;;12.32;5.68;;;13.10;99.90;;;;;;5049814;28;20045;-67
2023/03/24 02:34:45;;;;;;;7.50;5.40;;;13.10;99.90;;;;;;5049706;28;20041;-67
2023/03/24 02:37:41;;;;;;;9.05;4.55;;;12.90;99.90;;;;;;5050146;28;20377;-67
2023/03/24 02:40:33;;;;;;;6.65;4.78;;;12.80;99.90;;;;;;5049729;28;20041;-68
2023/03/24 02:43:16;;;;;;;7.35;4.88;;;12.90;99.90;;;;;;5050470;28;20044;-67
2023/03/24 02:46:12;;;;;;;12.27;5.78;;;12.70;99.90;;;;;;5049913;28;20560;-67
2023/03/24 02:49:08;;;;;;;7.97;4.75;;;12.80;99.90;;;;;;5033279;28;20072;-67
2023/03/24 02:51:41;;;;;;;8.38;4.93;;;13.30;99.90;;;;;;5049719;28;20051;-68
2023/03/24 02:54:21;;;;;;;7.47;4.03;;;13.30;99.90;;;;;;5049571;28;20504;-68
2023/03/24 02:57:04;;;;;;;10.93;5.72;;;12.90;99.90;;;;;;5051088;28;20492;-67
2023/03/24 02:59:36;;;;;;;9.25;5.32;;;13.20;99.90;;;;;;5049814;28;20048;-67
2023/03/24 03:02:13;;;;;;;8.48;5.30;;;13.30;99.90;;;;;;5053307;28;20404;-67
2023/03/24 03:04:52;;;;;;;4.97;4.45;;;13.40;99.90;;;;;;5053277;28;20516;-67
2023/03/24 03:07:23;;;;;;;8.77;4.43;;;13.30;99.90;;;;;;5053385;28;20044;-68
2023/03/24 03:10:02;;;;;;;5.22;4.03;;;12.80;99.90;;;;;;5036618;28;20048;-67
2023/03/24 03:12:33;;;;;;;6.18;4.28;;;12.70;99.90;;;;;;5052936;28;20052;-67
2023/03/24 03:15:13;;;;;;;7.47;4.82;;;12.80;99.90;;;;;;5053162;28;20085;-67
2023/03/24 03:17:47;;;;;;;6.18;4.47;;;13.10;99.90;;;;;;5053279;28;20041;-67
2023/03/24 03:20:17;;;;;;;9.77;4.22;;;14.30;99.90;;;;;;5053259;28;20068;-67
2023/03/24 03:22:50;;;;;;;8.55;4.82;;;12.80;99.90;;;;;;5052817;28;20049;-70
2023/03/24 03:25:21;;;;;;;;;;;12.50;99.90;;;;;;5053457;28;20037;-67
2023/03/24 03:27:47;;;;;;;4.55;2.65;;;12.60;99.90;;;;;;5052677;28;19971;-68
2023/03/24 03:30:41;;;;;;;6.60;2.70;;;12.40;99.90;;;;;;5052801;28;20033;-67
2023/03/24 03:33:32;;;;;;;7.63;2.17;;;12.40;99.90;;;;;;5029255;28;20056;-67
2023/03/24 03:36:19;;;;;;;6.65;2.10;;;12.70;99.90;;;;;;5052581;28;20059;-67
2023/03/24 03:39:13;;;;;;;5.05;1.85;;;12.50;99.90;;;;;;5052642;28;20045;-67
2023/03/24 03:41:39;;;;;;;6.00;2.08;;;12.30;99.90;;;;;;5052499;28;20045;-67
2023/03/24 03:44:05;;;;;;;10.07;2.40;;;12.50;99.90;;;;;;5053128;28;20048;-68
2023/03/24 03:46:31;;;;;;;9.80;2.00;;;12.30;99.90;;;;;;5052547;28;20045;-68
2023/03/24 03:48:57;;;;;;;3.45;1.40;;;12.30;99.90;;;;;;5052635;28;20040;-67
2023/03/24 03:51:23;;;;;;;12.85;2.40;;;12.10;99.90;;;;;;5052611;28;20098;-67
2023/03/24 03:53:55;;;;;;;6.00;1.70;;;12.20;99.90;;;;;;5052078;28;20127;-67
2023/03/24 03:56:23;;;;;;;6.03;1.90;;;12.10;99.90;;;;;;5052256;28;20033;-68
2023/03/24 03:58:49;;;;;;;6.15;2.35;;;12.30;99.90;;;;;;5052402;28;20045;-67
2023/03/24 04:01:18;;;;;;;7.55;1.98;;;12.10;99.90;;;;;;5035577;28;20040;-68
2023/03/24 04:04:25;;;;;;;7.45;1.70;;;12.10;99.90;;;;;;5052214;28;20558;-68
2023/03/24 04:07:10;;;;;;;5.38;1.50;;;12.20;99.90;;;;;;5052273;28;20049;-67
2023/03/24 04:10:14;;;;;;;10.15;1.70;;;11.90;99.90;;;;;;5051568;28;20076;-68
2023/03/24 04:12:56;;;;;;;7.93;1.92;;;11.90;99.90;;;;;;5038678;28;20049;-67
2023/03/24 04:15:32;;;;;;;6.88;1.55;;;11.80;99.90;;;;;;5035123;28;20044;-67
2023/03/24 04:18:24;;;;;;;10.48;1.65;;;11.90;99.90;;;;;;5051858;28;20508;-68
2023/03/24 04:21:27;;;;;;;8.30;2.40;;;11.70;99.90;;;;;;5052084;28;20388;-67
2023/03/24 04:24:26;;;;;;;8.70;1.80;;;11.70;99.90;;;;;;5051526;28;20044;-67
2023/03/24 04:27:08;;;;;;;7.50;1.75;;;11.80;99.90;;;;;;5051646;28;20047;-67
2023/03/24 04:29:57;;;;;;;16.75;4.00;;;11.60;99.90;;;;;;5051678;28;20044;-67
2023/03/24 04:32:46;;;;;;;14.13;2.60;;;11.40;99.90;;;;;;5051564;28;20047;-67
2023/03/24 04:35:30;;;;;;;9.63;2.08;;;11.40;99.90;;;;;;5051374;28;20045;-66
2023/03/24 04:38:01;;;;;;;17.33;3.50;;;11.30;99.90;;;;;;5051476;28;20044;-67
2023/03/24 04:40:31;;;;;;;11.77;2.03;;;11.40;99.90;;;;;;5051523;28;20073;-67
2023/03/24 04:43:02;;;;;;;12.60;2.22;;;11.30;99.90;;;;;;5051831;28;20033;-67
2023/03/24 04:45:32;;;;;;;10.73;2.40;;;11.30;99.90;;;;;;5051886;28;20045;-67
2023/03/24 04:48:02;;;;;;;6.60;2.08;;;11.40;99.90;;;;;;5051663;28;20492;-68
2023/03/24 04:50:29;;;;;;;8.63;2.05;;;11.20;99.90;;;;;;5051493;28;20048;-68
2023/03/24 04:52:56;;;;;;;13.65;3.08;;;11.50;99.90;;;;;;5051178;28;20497;-67
2023/03/24 04:55:49;;;;;;;11.57;2.65;;;11.30;99.90;;;;;;5034388;28;20084;-68
2023/03/24 04:58:20;;;;;;;10.57;2.58;;;11.40;99.90;;;;;;5051096;28;20076;-68
2023/03/24 05:00:46;;;;;;;18.15;2.88;;;11.40;99.90;;;;;;5051363;28;20036;-68
2023/03/24 05:03:14;;;;;;;15.57;2.72;;;11.20;99.90;;;;;;5050983;28;20470;-68
2023/03/24 05:05:44;;;;;;;12.77;3.38;;;11.30;99.90;;;;;;5051008;28;20083;-67
2023/03/24 05:08:10;;;;;;;10.25;2.90;;;11.30;99.90;;;;;;5051207;28;20071;-68
2023/03/24 05:10:36;;;;;;;11.80;3.10;;;11.40;99.90;;;;;;5050815;28;20064;-68
2023/03/24 05:13:03;;;;;;;15.18;3.15;;;11.30;99.90;;;;;;5033565;28;20061;-68
2023/03/24 05:15:28;;;;;;;19.77;4.35;;;11.20;99.90;;;;;;5049713;28;20052;-68
2023/03/24 05:17:55;;;;;;;17.23;3.15;;;11.40;99.90;;;;;;5050315;28;20037;-67
2023/03/24 05:20:21;;;;;;;12.95;4.13;;;11.40;99.90;;;;;;5050791;28;20064;-68
2023/03/24 05:22:48;;;;;;;16.98;4.00;;;11.20;99.90;;;;;;5050276;28;20090;-68
2023/03/24 05:25:14;;;;;;;16.55;3.47;;;11.20;99.90;;;;;;5016717;28;20033;-68
2023/03/24 05:27:40;;;;;;;17.10;3.42;;;11.40;99.90;;;;;;5014013;28;20048;-68
2023/03/24 05:30:07;;;;;;;15.23;3.05;;;11.20;99.90;;;;;;5030475;28;20386;-68
2023/03/24 05:32:33;;;;;;;11.27;2.78;;;11.00;99.90;;;;;;5014285;28;20094;-67
2023/03/24 05:34:59;;;;;;;9.15;2.80;;;11.00;99.90;;;;;;5030317;28;20133;-68
2023/03/24 05:37:26;;;;;;;15.27;2.78;;;11.10;99.90;;;;;;5013980;28;20083;-68
2023/03/24 05:39:52;;;;;;;10.95;3.83;;;11.30;99.90;;;;;;5030489;28;20048;-68
2023/03/24 05:42:19;;;;;;;14.30;4.22;;;10.80;99.90;;;;;;5031736;28;20509;-68
2023/03/24 05:44:45;;;;;;;16.40;3.08;;;10.80;99.90;;;;;;5014262;28;20041;-68
2023/03/24 05:47:14;;;;;;;15.32;3.17;;;10.50;99.90;;;;;;5030721;28;20389;-68
2023/03/24 05:49:41;;;;;;;13.70;2.50;;;11.40;99.90;;;;;;5030435;28;20052;-68
2023/03/24 05:52:08;;;;;;;12.82;3.13;;;11.00;99.90;;;;;;5028733;28;20117;-68
2023/03/24 05:54:34;;;;;;;11.80;2.58;;;10.80;99.90;;;;;;5028465;28;20038;-68
2023/03/24 05:57:00;;;;;;;19.33;2.53;;;10.70;99.90;;;;;;5029515;28;20091;-68
2023/03/24 05:59:26;;;;;;;14.27;2.63;;;10.90;99.90;;;;;;5029125;28;20045;-67
2023/03/24 06:01:52;;;;;;;17.77;3.65;;;10.90;99.90;;;;;;5029328;28;20034;-68
2023/03/24 06:04:19;;;;;;;16.60;2.95;;;11.10;99.90;;;;;;5029460;28;20084;-68
2023/03/24 06:06:45;;;;;;;15.48;3.50;;;10.90;99.90;;;;;;5012703;28;20037;-68
2023/03/24 06:09:14;;;;;;;11.13;2.95;;;11.00;99.90;;;;;;5029936;28;20081;-68
2023/03/24 06:11:39;;;;;;;9.43;2.75;;;10.90;99.90;;;;;;5029603;28;20052;-68
2023/03/24 06:14:06;;;;;;;20.77;2.90;;;10.90;99.90;;;;;;5029193;28;20049;-68
2023/03/24 06:16:32;;;;;;;19.20;2.92;;;10.90;99.90;;;;;;5031599;28;20079;-68
2023/03/24 06:18:59;;;;;;;14.48;3.45;;;10.90;99.90;;;;;;5030779;28;20501;-67
2023/03/24 06:21:29;;;;;;;13.98;2.70;;;11.00;99.90;;;;;;5010279;28;20042;-67
2023/03/24 06:23:56;;;;;;;18.17;3.28;;;11.00;99.90;;;;;;5033177;28;20116;-68
2023/03/24 06:26:21;;;;;;;23.70;3.42;;;11.00;99.90;;;;;;5030897;28;20048;-68
2023/03/24 06:28:50;;;;;;;16.02;3.15;;;11.10;99.90;;;;;;5045841;28;20045;-68
2023/03/24 06:31:20;;;;;;;13.48;3.53;;;11.00;99.90;;;;;;5029333;28;20091;-68
2023/03/24 06:33:47;;;;;;;16.95;3.40;;;11.10;99.90;;;;;;5027467;28;20037;-68
2023/03/24 06:36:14;;;;;;;16.00;3.10;;;11.30;99.90;;;;;;5031122;28;20180;-68
2023/03/24 06:38:41;;;;;;;18.42;2.85;;;11.20;99.90;;;;;;5015637;28;20042;-68
2023/03/24 06:41:07;;;;;;;13.93;3.25;;;11.10;99.90;;;;;;5015235;28;20038;-68
2023/03/24 06:43:33;;;;;;;20.17;3.35;;;11.10;99.90;;;;;;5032920;28;20054;-68
2023/03/24 06:46:00;;;;;;;15.07;3.63;;;11.20;99.90;;;;;;5033706;28;20037;-68
2023/03/24 06:48:26;;;;;;;14.20;2.95;;;10.90;99.90;;;;;;5033765;28;20048;-68
2023/03/24 06:50:53;;;;;;;22.65;3.45;;;11.20;99.90;;;;;;5033524;28;20037;-68
2023/03/24 06:53:22;;;;;;;16.83;3.25;;;11.30;99.90;;;;;;5033146;28;20045;-67
2023/03/24 06:55:48;;;;;;;20.70;3.20;;;11.20;99.90;;;;;;5033809;28;20033;-68
2023/03/24 06:58:15;;;;;;;22.08;4.28;;;11.10;99.90;;;;;;5016939;28;20497;-68
2023/03/24 07:00:41;;;;;;;20.10;4.13;;;11.70;99.90;;;;;;5033662;28;20037;-68
2023/03/24 07:03:07;;;;;;;22.92;3.45;;;11.40;99.90;;;;;;5016645;28;20119;-68
2023/03/24 07:05:38;;;;;;;15.30;3.38;;;11.30;99.90;;;;;;5033590;28;20037;-68
2023/03/24 07:08:03;;;;;;;24.42;3.75;;;11.70;99.90;;;;;;5033268;28;20041;-68
2023/03/24 07:10:29;;;;;;;18.70;4.13;;;11.40;99.90;;;;;;5033468;28;20100;-68
2023/03/24 07:12:56;;;;;;;21.45;3.90;;;11.50;99.90;;;;;;5016711;28;20049;-68
2023/03/24 07:15:22;;;;;;;21.40;4.57;;;11.40;99.90;;;;;;5033109;28;20038;-68
2023/03/24 07:17:48;;;;;;;25.80;4.55;;;11.30;99.90;;;;;;5033159;28;20128;-68
2023/03/24 07:20:14;;;;;;;17.70;3.88;;;;;;;;;;5033119;28;20400;-68
2023/03/24 07:22:40;;;;;;;16.67;3.45;;;11.60;99.90;;;;;;5033042;28;20041;-68
2023/03/24 07:25:07;;;;;;;17.33;3.45;;;11.60;99.90;;;;;;5016241;28;20040;-68
2023/03/24 07:27:33;;;;;;;31.75;5.28;;;11.50;99.90;;;;;;5032788;28;20041;-68
2023/03/24 07:30:00;;;;;;;21.17;4.18;;;11.90;99.90;;;;;;5032827;28;20091;-68
2023/03/24 07:32:27;;;;;;;25.95;5.90;;;12.40;99.90;;;;;;5032792;28;20037;-68
2023/03/24 07:34:53;;;;;;;32.17;4.72;;;11.60;99.90;;;;;;5032523;28;20128;-68
2023/03/24 07:37:19;;;;;;;22.63;4.03;;;11.60;99.90;;;;;;5016342;28;20124;-68
2023/03/24 07:39:45;;;;;;;24.77;4.65;;;12.10;99.90;;;;;;5032570;28;20033;-68
2023/03/24 07:42:10;;;;;;;28.20;4.38;;;12.40;99.90;;;;;;5016100;28;20079;-68
2023/03/24 07:44:36;;;;;;;24.08;3.88;;;11.50;99.90;;;;;;5032502;28;20049;-68
2023/03/24 07:47:02;;;;;;;30.50;4.57;;;11.70;99.90;;;;;;5032147;28;20041;-68
2023/03/24 07:49:27;;;;;;;26.15;5.40;;;11.70;99.90;;;;;;5016185;28;20041;-67
2023/03/24 07:51:53;;;;;;;18.02;3.80;;;11.90;99.90;;;;;;5032689;28;20156;-68
2023/03/24 07:54:18;;;;;;;28.35;5.90;;;11.60;99.90;;;;;;5032333;28;20038;-68
2023/03/24 07:56:44;;;;;;;22.58;4.63;;;11.60;99.90;;;;;;5032480;28;20549;-68
2023/03/24 07:59:10;;;;;;;19.70;4.57;;;11.80;99.90;;;;;;5032307;28;20048;-67
2023/03/24 08:01:37;;;;;;;19.27;4.38;;;11.80;99.90;;;;;;5032447;28;20407;-68
2023/03/24 08:04:05;;;;;;;29.13;4.40;;;11.90;99.90;;;;;;5032020;28;20042;-67
2023/03/24 08:06:31;;;;;;;24.35;5.40;;;11.90;99.90;;;;;;5032348;28;20378;-68
2023/03/24 08:08:56;;;;;;;22.75;4.32;;;11.90;99.90;;;;;;5032128;28;20045;-67
2023/03/24 08:11:22;;;;;;;26.85;4.47;;;12.30;99.90;;;;;;5015500;28;20049;-68
2023/03/24 08:13:47;;;;;;;34.65;7.07;;;12.00;99.90;;;;;;5033008;28;20052;-68
2023/03/24 08:16:13;;;;;;;33.20;5.63;;;12.00;99.90;;;;;;5031881;28;20041;-67
2023/03/24 08:18:39;;;;;;;27.40;5.13;;;12.10;99.90;;;;;;5015698;28;20048;-68
2023/03/24 08:21:05;;;;;;;26.73;5.80;;;12.10;99.90;;;;;;5031826;28;20034;-68
2023/03/24 08:23:31;;;;;;;22.02;4.70;;;12.20;99.90;;;;;;5031606;28;20052;-67
2023/03/24 08:25:56;;;;;;;32.70;6.95;;;12.40;99.90;;;;;;5031820;28;20033;-68
2023/03/24 08:28:22;;;;;;;23.98;5.93;;;12.60;99.90;;;;;;5032947;28;20119;-69
2023/03/24 08:30:48;;;;;;;27.25;5.57;;;12.20;99.90;;;;;;5031627;28;20045;-67
2023/03/24 08:33:15;;;;;;;29.00;4.47;;;12.50;99.90;;;;;;5031352;28;20047;-68
2023/03/24 08:35:41;;;;;;;24.48;4.63;;;12.20;99.90;;;;;;5031960;28;20386;-68
2023/03/24 08:38:08;;;;;;;21.42;4.88;;;12.40;99.90;;;;;;5032920;28;20042;-68
2023/03/24 08:40:38;;;;;;;22.23;4.22;;;12.80;99.90;;;;;;5031816;28;20037;-67
2023/03/24 08:43:10;;;;;;;25.17;5.20;;;12.40;99.90;;;;;;5031527;28;20083;-66
2023/03/24 08:45:36;;;;;;;20.92;4.80;;;12.30;99.90;;;;;;5031499;28;20039;-68
2023/03/24 08:48:04;;;;;;;24.80;4.45;;;;;;;;;;5031438;28;20370;-68
2023/03/24 08:50:34;;;;;;;29.52;5.65;;;12.40;99.90;;;;;;5015063;28;20053;-67
2023/03/24 08:53:00;;;;;;;26.63;4.65;;;12.40;99.90;;;;;;5031211;28;20033;-69
2023/03/24 08:55:27;;;;;;;34.28;5.45;;;12.40;99.90;;;;;;5031117;28;20508;-67
2023/03/24 08:57:52;;;;;;;16.15;4.75;;;12.50;99.90;;;;;;5030540;28;20113;-67
2023/03/24 09:00:20;;;;;;;21.35;4.38;;;12.70;99.90;;;;;;5031157;28;20510;-68
2023/03/24 09:02:48;;;;;;;18.83;4.30;;;12.50;99.90;;;;;;5031144;28;20052;-68
2023/03/24 09:05:17;;;;;;;25.30;4.78;;;12.60;99.90;;;;;;5030884;28;20092;-67
2023/03/24 09:07:44;;;;;;;21.83;4.68;;;12.70;99.90;;;;;;5031235;28;20397;-67
2023/03/24 09:10:11;;;;;;;24.25;4.53;;;12.90;99.90;;;;;;5014691;28;20033;-69
2023/03/24 09:12:38;;;;;;;27.40;4.30;;;13.00;99.90;;;;;;5031086;28;20037;-68
2023/03/24 09:15:05;;;;;;;28.23;5.38;;;13.00;99.90;;;;;;5030765;28;20508;-68
2023/03/24 09:17:32;;;;;;;18.05;3.67;;;12.80;99.90;;;;;;5030844;28;20041;-68
2023/03/24 09:19:57;;;;;;;33.60;4.32;;;12.80;99.90;;;;;;5031042;28;20433;-68
2023/03/24 09:22:23;;;;;;;16.30;3.28;;;12.60;99.90;;;;;;5030955;28;20037;-68
2023/03/24 09:24:49;;;;;;;19.50;3.67;;;12.90;99.90;;;;;;5030729;28;20041;-68
2023/03/24 09:27:16;;;;;;;20.75;3.30;;;12.60;99.90;;;;;;5014252;28;20048;-69
2023/03/24 09:29:41;;;;;;;18.83;3.83;;;13.00;99.90;;;;;;5014282;28;20080;-69
2023/03/24 09:32:07;;;;;;;22.65;5.18;;;13.40;99.90;;;;;;5030860;28;20425;-69
2023/03/24 09:34:33;;;;;;;25.15;4.75;;;13.00;99.90;;;;;;5013864;28;20049;-69
2023/03/24 09:36:59;;;;;;;20.92;4.10;;;12.90;99.90;;;;;;5030664;28;20073;-68
2023/03/24 09:39:26;;;;;;;23.52;4.60;;;12.90;99.90;;;;;;5030321;28;20044;-68
2023/03/24 09:41:53;;;;;;;22.67;3.67;;;13.30;99.90;;;;;;5030346;28;20037;-68
2023/03/24 09:44:39;;;;;;;17.73;3.22;;;13.10;99.90;;;;;;5030343;28;20041;-68
2023/03/24 09:47:19;;;;;;;21.92;4.45;;;13.40;99.90;;;;;;5013947;28;20046;-68
2023/03/24 09:49:47;;;;;;;17.45;3.95;;;13.90;99.90;;;;;;5030345;28;20041;-68
2023/03/24 09:52:17;;;;;;;23.40;5.68;;;13.60;99.90;;;;;;5030318;28;20045;-69
2023/03/24 09:54:57;;;;;;;20.63;3.97;;;14.50;99.90;;;;;;5030180;28;20421;-68
2023/03/24 09:57:28;;;;;;;19.98;3.90;;;13.90;99.90;;;;;;5030630;28;20412;-68
2023/03/24 09:59:54;;;;;;;16.08;3.05;;;13.60;99.90;;;;;;5030353;28;20038;-69
2023/03/24 10:02:21;;;;;;;29.02;4.50;;;14.40;99.90;;;;;;5028895;28;20528;-68
2023/03/24 10:04:48;;;;;;;19.55;3.65;;;14.00;99.90;;;;;;5007002;28;20048;-69
2023/03/24 10:07:36;;;;;;;18.02;4.85;;;13.50;99.90;;;;;;5029968;28;20042;-69
2023/03/24 10:10:02;;;;;;;15.60;3.30;;;13.80;99.90;;;;;;5024615;28;20412;-69
2023/03/24 10:12:32;;;;;;;16.75;3.53;;;13.70;99.90;;;;;;5017525;28;20140;-69
2023/03/24 10:15:19;;;;;;;16.50;3.28;;;13.80;99.90;;;;;;5017071;28;20091;-68
2023/03/24 10:18:03;;;;;;;14.45;3.67;;;14.00;99.90;;;;;;5033748;28;20037;-68
2023/03/24 10:20:57;;;;;;;15.32;3.97;;;13.90;99.90;;;;;;5032225;28;20516;-68
2023/03/24 10:23:35;;;;;;;;;;;14.10;99.90;;;;;;5012800;28;20269;-68
2023/03/24 10:26:35;;;;;;;12.98;2.67;;;14.10;99.90;;;;;;5013692;28;19936;-67
2023/03/24 10:29:28;;;;;;;15.45;3.25;;;14.00;99.90;;;;;;5025654;28;20519;-68
2023/03/24 10:32:30;;;;;;;15.95;3.35;;;13.90;99.90;;;;;;5034941;28;20048;-70
2023/03/24 10:35:08;;;;;;;19.10;4.10;;;13.90;99.90;;;;;;4990228;28;20049;-67
2023/03/24 10:37:35;;;;;;;16.02;4.25;;;14.20;99.90;;;;;;5053980;28;20049;-67
2023/03/24 10:40:02;;;;;;;14.73;3.88;;;13.80;99.90;;;;;;5031000;28;20087;-68
2023/03/24 10:42:33;;;;;;;15.45;3.70;;;14.40;99.90;;;;;;5031488;28;20072;-68
2023/03/24 10:44:59;;;;;;;25.65;3.90;;;14.30;99.90;;;;;;5031253;28;20080;-70
2023/03/24 10:47:28;;;;;;;21.98;5.13;;;14.40;99.90;;;;;;5031567;28;20048;-70
2023/03/24 10:50:00;;;;;;;26.88;4.22;;;14.40;99.90;;;;;;5031267;28;20091;-70
2023/03/24 10:52:27;;;;;;;19.33;3.80;;;14.10;99.90;;;;;;5031631;28;20037;-70
2023/03/24 10:55:05;;;;;;;23.95;4.07;;;14.10;99.90;;;;;;5014781;28;20468;-70
2023/03/24 10:57:31;;;;;;;21.38;3.50;;;14.10;99.90;;;;;;5015177;28;20029;-70
2023/03/24 11:00:14;;;;;;;25.10;3.10;;;14.40;99.90;;;;;;5015157;28;20091;-71
2023/03/24 11:02:41;;;;;;;20.40;4.63;;;14.30;99.90;;;;;;5033248;28;20034;-71
2023/03/24 11:05:23;;;;;;;22.67;4.30;;;14.60;99.90;;;;;;5016694;28;20810;-70
2023/03/24 11:07:50;;;;;;;24.08;4.18;;;14.20;99.90;;;;;;5033533;28;20451;-70
2023/03/24 11:10:22;;;;;;;20.27;3.58;;;14.20;99.90;;;;;;5016806;28;20080;-71
2023/03/24 11:12:54;;;;;;;20.80;4.18;;;14.40;99.90;;;;;;5033100;28;20045;-71
2023/03/24 11:15:28;;;;;;;24.65;5.55;;;14.20;99.90;;;;;;5032873;28;20099;-71
2023/03/24 11:18:14;;;;;;;21.17;3.80;;;14.10;99.90;;;;;;5016622;28;20041;-70
2023/03/24 11:20:50;;;;;;;14.50;3.15;;;14.60;99.90;;;;;;5016763;28;20037;-71
2023/03/24 11:23:27;;;;;;;21.75;3.97;;;14.70;99.90;;;;;;5032752;28;20049;-71
2023/03/24 11:26:06;;;;;;;22.55;4.78;;;14.60;99.90;;;;;;5033270;28;20077;-71
2023/03/24 11:29:09;;;;;;;22.98;4.30;;;14.80;99.90;;;;;;5032984;28;20095;-71
2023/03/24 11:31:39;;;;;;;18.83;3.80;;;14.90;99.90;;;;;;4998004;28;20559;-71
2023/03/24 11:34:18;;;;;;;12.68;2.55;;;15.10;99.90;;;;;;5032693;28;20386;-71
2023/03/24 11:36:50;;;;;;;11.82;2.53;;;15.00;99.90;;;;;;5032849;28;20033;-70
2023/03/24 11:39:27;;;;;;;14.95;2.83;;;15.80;99.90;;;;;;5032990;28;20141;-71
2023/03/24 11:42:03;;;;;;;16.85;2.65;;;15.10;99.90;;;;;;5016062;28;20558;-70
2023/03/24 11:44:50;;;;;;;15.85;3.20;;;14.90;99.90;;;;;;5054956;22;20132;-73
2023/03/24 11:47:37;;;;;;;11.95;2.70;;;15.20;99.90;;;;;;5032876;28;20048;-73
2023/03/24 11:50:17;;;;;;;17.65;3.53;;;14.90;99.90;;;;;;5032598;28;20041;-73
2023/03/24 11:52:51;;;;;;;19.83;2.70;;;14.50;99.90;;;;;;5032663;28;20038;-73
2023/03/24 11:55:21;;;;;;;;;;;14.70;99.90;;;;;;5032966;28;20042;-73
2023/03/24 11:57:46;;;;;;;18.80;3.10;;;14.40;99.90;;;;;;5032279;28;19982;-74
2023/03/24 12:00:25;;;;;;;16.08;3.35;;;14.30;99.90;;;;;;5032398;28;20552;-74
2023/03/24 12:03:11;;;;;;;23.63;3.75;;;14.30;99.90;;;;;;5032265;28;20523;-73
2023/03/24 12:05:44;;;;;;;14.18;2.90;;;14.60;99.90;;;;;;5015759;28;20044;-74
2023/03/24 12:08:15;;;;;;;10.85;2.45;;;14.50;99.90;;;;;;5032170;28;20120;-74
2023/03/24 12:11:15;;;;;;;17.00;3.42;;;14.90;99.90;;;;;;5032151;28;20091;-73
2023/03/24 12:13:47;;;;;;;17.50;3.33;;;14.80;99.90;;;;;;5031849;28;20041;-74
2023/03/24 12:16:31;;;;;;;14.88;3.55;;;15.20;99.90;;;;;;5031965;28;20042;-73
2023/03/24 12:19:06;;;;;;;;;;;15.20;99.90;;;;;;5032400;28;20041;-73
2023/03/24 12:21:53;;;;;;;16.70;3.00;;;15.20;99.90;;;;;;5031843;28;20012;-73
2023/03/24 12:24:37;;;;;;;14.93;2.85;;;15.00;99.90;;;;;;5031923;28;20048;-74
2023/03/24 12:27:02;;;;;;;12.25;3.08;;;15.00;99.90;;;;;;5032108;28;20045;-74
2023/03/24 12:29:47;;;;;;;13.35;2.80;;;16.00;99.90;;;;;;5031776;28;20044;-73
2023/03/24 12:32:30;;;;;;;14.35;2.92;;;15.30;99.90;;;;;;5015016;28;20045;-73
2023/03/24 12:35:23;;;;;;;13.73;2.75;;;15.00;99.90;;;;;;5030850;28;20049;-74
2023/03/24 12:38:21;;;;;;;18.30;3.50;;;15.20;99.90;;;;;;5031586;28;20029;-74
2023/03/24 12:41:01;;;;;;;12.18;2.65;;;15.20;99.90;;;;;;4993185;28;20045;-73
2023/03/24 12:43:49;;;;;;;14.60;3.42;;;15.30;99.90;;;;;;5014711;28;20074;-74
2023/03/24 12:46:21;;;;;;;15.63;2.40;;;15.10;99.90;;;;;;5031698;28;20042;-73
2023/03/24 12:49:04;;;;;;;14.82;2.97;;;15.10;99.90;;;;;;5014801;28;20068;-74
2023/03/24 12:51:52;;;;;;;8.40;2.67;;;15.00;99.90;;;;;;5031580;28;20049;-73
2023/03/24 12:54:35;;;;;;;13.57;2.88;;;15.00;99.90;;;;;;5030841;28;20505;-73
2023/03/24 12:57:09;;;;;;;10.63;2.63;;;15.20;99.90;;;;;;5015072;28;20125;-73
2023/03/24 13:00:00;;;;;;;12.68;2.63;;;15.20;99.90;;;;;;5015050;28;20041;-74
2023/03/24 13:02:44;;;;;;;17.15;3.30;;;15.00;99.90;;;;;;5031142;28;20041;-73
2023/03/24 13:05:26;;;;;;;17.67;2.78;;;15.00;99.90;;;;;;5014800;28;20045;-74
2023/03/24 13:07:57;;;;;;;16.55;3.13;;;14.90;99.90;;;;;;5014628;28;20041;-73